sensor_id;sensor_type;location;lat;lon;timestamp;P1;durP1;ratioP1;P2;durP2;ratioP2
12814;SDS011;6472;52.328;13.070;2022-09-28T00:01:05;1.70;;;1.53;;
12814;SDS011;6472;52.328;13.070;2022-09-28T00:03:34;1.80;;;1.27;;
12814;SDS011;6472;52.328;13.070;2022-09-28T00:06:02;2.33;;;1.53;;
12814;SDS011;6472;52.328;13.070;2022-09-28T00:08:31;4.80;;;1.83;;
12814;SDS011;6472;52.328;13.070;2022-09-28T00:11:00;1.73;;;1.63;;
12814;SDS011;6472;52.328;13.070;2022-09-28T00:13:29;1.87;;;1.77;;
12814;SDS011;6472;52.328;13.070;2022-09-28T00:15:58;1.30;;;1.20;;
12814;SDS011;6472;52.328;13.070;2022-09-28T00:18:29;1.77;;;1.53;;
12814;SDS011;6472;52.328;13.070;2022-09-28T00:21:00;2.23;;;1.53;;
12814;SDS011;6472;52.328;13.070;2022-09-28T00:23:30;1.47;;;1.37;;
12814;SDS011;6472;52.328;13.070;2022-09-28T00:26:01;1.40;;;1.40;;
12814;SDS011;6472;52.328;13.070;2022-09-28T00:28:30;1.47;;;1.30;;
12814;SDS011;6472;52.328;13.070;2022-09-28T00:30:58;1.13;;;1.03;;
12814;SDS011;6472;52.328;13.070;2022-09-28T00:33:26;1.73;;;1.50;;
12814;SDS011;6472;52.328;13.070;2022-09-28T00:35:56;1.53;;;1.40;;
12814;SDS011;6472;52.328;13.070;2022-09-28T00:38:25;1.80;;;1.47;;
12814;SDS011;6472;52.328;13.070;2022-09-28T00:40:54;2.43;;;1.70;;
12814;SDS011;6472;52.328;13.070;2022-09-28T00:43:23;1.50;;;1.40;;
12814;SDS011;6472;52.328;13.070;2022-09-28T00:45:53;1.53;;;1.43;;
12814;SDS011;6472;52.328;13.070;2022-09-28T00:48:26;3.23;;;1.50;;
12814;SDS011;6472;52.328;13.070;2022-09-28T00:50:59;2.07;;;1.70;;
12814;SDS011;6472;52.328;13.070;2022-09-28T00:53:31;1.93;;;1.40;;
12814;SDS011;6472;52.328;13.070;2022-09-28T00:56:03;1.53;;;1.20;;
12814;SDS011;6472;52.328;13.070;2022-09-28T00:58:37;2.17;;;1.93;;
12814;SDS011;6472;52.328;13.070;2022-09-28T01:01:08;1.63;;;1.30;;
12814;SDS011;6472;52.328;13.070;2022-09-28T01:03:37;2.10;;;1.67;;
12814;SDS011;6472;52.328;13.070;2022-09-28T01:06:14;1.13;;;1.00;;
12814;SDS011;6472;52.328;13.070;2022-09-28T01:08:45;1.30;;;1.20;;
12814;SDS011;6472;52.328;13.070;2022-09-28T01:11:16;1.90;;;1.80;;
12814;SDS011;6472;52.328;13.070;2022-09-28T01:13:45;2.20;;;1.40;;
12814;SDS011;6472;52.328;13.070;2022-09-28T01:16:18;1.50;;;1.40;;
12814;SDS011;6472;52.328;13.070;2022-09-28T01:18:54;2.83;;;1.23;;
12814;SDS011;6472;52.328;13.070;2022-09-28T01:21:38;1.77;;;1.63;;
12814;SDS011;6472;52.328;13.070;2022-09-28T01:24:19;2.23;;;1.60;;
12814;SDS011;6472;52.328;13.070;2022-09-28T01:27:06;1.83;;;1.57;;
12814;SDS011;6472;52.328;13.070;2022-09-28T01:29:42;2.33;;;1.83;;
12814;SDS011;6472;52.328;13.070;2022-09-28T01:32:16;1.80;;;1.70;;
12814;SDS011;6472;52.328;13.070;2022-09-28T01:34:53;2.03;;;1.90;;
12814;SDS011;6472;52.328;13.070;2022-09-28T01:37:25;2.13;;;1.93;;
12814;SDS011;6472;52.328;13.070;2022-09-28T01:40:01;3.23;;;2.30;;
12814;SDS011;6472;52.328;13.070;2022-09-28T01:42:35;1.80;;;1.70;;
12814;SDS011;6472;52.328;13.070;2022-09-28T01:45:06;3.27;;;1.83;;
12814;SDS011;6472;52.328;13.070;2022-09-28T01:47:40;2.43;;;1.87;;
12814;SDS011;6472;52.328;13.070;2022-09-28T01:50:13;3.90;;;2.10;;
12814;SDS011;6472;52.328;13.070;2022-09-28T01:52:46;3.40;;;2.03;;
12814;SDS011;6472;52.328;13.070;2022-09-28T01:55:19;1.40;;;1.30;;
12814;SDS011;6472;52.328;13.070;2022-09-28T01:57:56;3.33;;;2.67;;
12814;SDS011;6472;52.328;13.070;2022-09-28T02:00:29;3.03;;;2.40;;
12814;SDS011;6472;52.328;13.070;2022-09-28T02:05:28;2.73;;;2.43;;
12814;SDS011;6472;52.328;13.070;2022-09-28T02:08:02;2.80;;;2.23;;
12814;SDS011;6472;52.328;13.070;2022-09-28T02:10:34;3.20;;;2.30;;
12814;SDS011;6472;52.328;13.070;2022-09-28T02:13:09;2.57;;;1.97;;
12814;SDS011;6472;52.328;13.070;2022-09-28T02:15:41;3.17;;;2.33;;
12814;SDS011;6472;52.328;13.070;2022-09-28T02:18:14;2.73;;;2.17;;
12814;SDS011;6472;52.328;13.070;2022-09-28T02:20:45;3.33;;;2.27;;
12814;SDS011;6472;52.328;13.070;2022-09-28T02:23:16;5.83;;;2.50;;
12814;SDS011;6472;52.328;13.070;2022-09-28T02:25:49;3.47;;;2.73;;
12814;SDS011;6472;52.328;13.070;2022-09-28T02:28:20;2.90;;;1.50;;
12814;SDS011;6472;52.328;13.070;2022-09-28T02:30:48;3.20;;;2.47;;
12814;SDS011;6472;52.328;13.070;2022-09-28T02:33:17;3.07;;;2.27;;
12814;SDS011;6472;52.328;13.070;2022-09-28T02:35:49;3.20;;;2.30;;
12814;SDS011;6472;52.328;13.070;2022-09-28T02:38:18;3.43;;;2.17;;
12814;SDS011;6472;52.328;13.070;2022-09-28T02:40:48;4.10;;;2.70;;
12814;SDS011;6472;52.328;13.070;2022-09-28T02:43:33;2.57;;;2.00;;
12814;SDS011;6472;52.328;13.070;2022-09-28T02:46:14;3.70;;;2.57;;
12814;SDS011;6472;52.328;13.070;2022-09-28T02:48:52;2.57;;;2.30;;
12814;SDS011;6472;52.328;13.070;2022-09-28T02:51:48;2.80;;;1.87;;
12814;SDS011;6472;52.328;13.070;2022-09-28T02:57:32;3.23;;;2.43;;
12814;SDS011;6472;52.328;13.070;2022-09-28T03:00:13;4.07;;;2.70;;
12814;SDS011;6472;52.328;13.070;2022-09-28T03:02:46;2.33;;;2.13;;
12814;SDS011;6472;52.328;13.070;2022-09-28T03:05:24;4.37;;;2.30;;
12814;SDS011;6472;52.328;13.070;2022-09-28T03:07:59;3.97;;;2.97;;
12814;SDS011;6472;52.328;13.070;2022-09-28T03:10:32;3.00;;;2.17;;
12814;SDS011;6472;52.328;13.070;2022-09-28T03:13:05;2.83;;;2.20;;
12814;SDS011;6472;52.328;13.070;2022-09-28T03:15:35;3.67;;;2.20;;
12814;SDS011;6472;52.328;13.070;2022-09-28T03:18:03;3.40;;;1.90;;
12814;SDS011;6472;52.328;13.070;2022-09-28T03:20:31;8.47;;;2.50;;
12814;SDS011;6472;52.328;13.070;2022-09-28T03:23:00;4.00;;;2.93;;
12814;SDS011;6472;52.328;13.070;2022-09-28T03:25:48;2.87;;;2.40;;
12814;SDS011;6472;52.328;13.070;2022-09-28T03:28:16;2.73;;;2.47;;
12814;SDS011;6472;52.328;13.070;2022-09-28T03:30:46;3.03;;;2.10;;
12814;SDS011;6472;52.328;13.070;2022-09-28T03:33:14;3.13;;;2.57;;
12814;SDS011;6472;52.328;13.070;2022-09-28T03:35:44;3.57;;;2.60;;
12814;SDS011;6472;52.328;13.070;2022-09-28T03:38:13;4.73;;;2.80;;
12814;SDS011;6472;52.328;13.070;2022-09-28T03:40:41;4.50;;;2.67;;
12814;SDS011;6472;52.328;13.070;2022-09-28T03:43:09;3.27;;;2.40;;
12814;SDS011;6472;52.328;13.070;2022-09-28T03:45:37;3.40;;;2.43;;
12814;SDS011;6472;52.328;13.070;2022-09-28T03:48:07;2.57;;;2.30;;
12814;SDS011;6472;52.328;13.070;2022-09-28T03:50:34;2.80;;;2.47;;
12814;SDS011;6472;52.328;13.070;2022-09-28T03:53:02;3.10;;;2.03;;
12814;SDS011;6472;52.328;13.070;2022-09-28T03:55:31;3.33;;;2.50;;
12814;SDS011;6472;52.328;13.070;2022-09-28T03:57:59;3.43;;;2.47;;
12814;SDS011;6472;52.328;13.070;2022-09-28T04:00:27;5.20;;;2.60;;
12814;SDS011;6472;52.328;13.070;2022-09-28T04:02:55;3.03;;;2.10;;
12814;SDS011;6472;52.328;13.070;2022-09-28T04:05:24;4.23;;;2.67;;
12814;SDS011;6472;52.328;13.070;2022-09-28T04:07:52;2.97;;;2.50;;
12814;SDS011;6472;52.328;13.070;2022-09-28T04:10:23;3.33;;;2.27;;
12814;SDS011;6472;52.328;13.070;2022-09-28T04:12:52;3.93;;;2.73;;
12814;SDS011;6472;52.328;13.070;2022-09-28T04:15:21;3.80;;;2.53;;
12814;SDS011;6472;52.328;13.070;2022-09-28T04:17:49;3.17;;;2.53;;
12814;SDS011;6472;52.328;13.070;2022-09-28T04:20:17;4.33;;;2.23;;
12814;SDS011;6472;52.328;13.070;2022-09-28T04:22:46;3.03;;;2.03;;
12814;SDS011;6472;52.328;13.070;2022-09-28T04:25:14;4.67;;;2.53;;
12814;SDS011;6472;52.328;13.070;2022-09-28T04:27:42;4.73;;;2.57;;
12814;SDS011;6472;52.328;13.070;2022-09-28T04:30:28;3.27;;;2.20;;
12814;SDS011;6472;52.328;13.070;2022-09-28T04:32:56;5.27;;;2.60;;
12814;SDS011;6472;52.328;13.070;2022-09-28T04:35:24;3.93;;;2.20;;
12814;SDS011;6472;52.328;13.070;2022-09-28T04:37:53;5.37;;;3.10;;
12814;SDS011;6472;52.328;13.070;2022-09-28T04:40:21;4.20;;;2.63;;
12814;SDS011;6472;52.328;13.070;2022-09-28T04:42:52;4.13;;;3.10;;
12814;SDS011;6472;52.328;13.070;2022-09-28T04:45:21;4.00;;;2.93;;
12814;SDS011;6472;52.328;13.070;2022-09-28T04:47:51;2.63;;;2.30;;
12814;SDS011;6472;52.328;13.070;2022-09-28T04:50:19;4.03;;;2.30;;
12814;SDS011;6472;52.328;13.070;2022-09-28T04:52:47;4.33;;;2.77;;
12814;SDS011;6472;52.328;13.070;2022-09-28T04:55:17;5.90;;;3.07;;
12814;SDS011;6472;52.328;13.070;2022-09-28T04:57:45;3.90;;;2.77;;
12814;SDS011;6472;52.328;13.070;2022-09-28T05:00:13;4.47;;;2.60;;
12814;SDS011;6472;52.328;13.070;2022-09-28T05:02:42;5.67;;;3.47;;
12814;SDS011;6472;52.328;13.070;2022-09-28T05:05:10;4.80;;;2.70;;
12814;SDS011;6472;52.328;13.070;2022-09-28T05:07:38;3.60;;;2.67;;
12814;SDS011;6472;52.328;13.070;2022-09-28T05:10:07;3.97;;;3.10;;
12814;SDS011;6472;52.328;13.070;2022-09-28T05:12:36;5.13;;;2.97;;
12814;SDS011;6472;52.328;13.070;2022-09-28T05:15:04;6.53;;;3.40;;
12814;SDS011;6472;52.328;13.070;2022-09-28T05:17:33;4.00;;;2.40;;
12814;SDS011;6472;52.328;13.070;2022-09-28T05:20:01;3.47;;;2.80;;
12814;SDS011;6472;52.328;13.070;2022-09-28T05:22:29;3.77;;;2.80;;
12814;SDS011;6472;52.328;13.070;2022-09-28T05:24:57;6.13;;;3.17;;
12814;SDS011;6472;52.328;13.070;2022-09-28T05:27:25;5.07;;;2.60;;
12814;SDS011;6472;52.328;13.070;2022-09-28T05:29:54;3.07;;;2.33;;
12814;SDS011;6472;52.328;13.070;2022-09-28T05:32:22;4.70;;;2.60;;
12814;SDS011;6472;52.328;13.070;2022-09-28T05:34:50;5.40;;;3.43;;
12814;SDS011;6472;52.328;13.070;2022-09-28T05:37:18;3.87;;;2.67;;
12814;SDS011;6472;52.328;13.070;2022-09-28T05:39:46;6.73;;;3.93;;
12814;SDS011;6472;52.328;13.070;2022-09-28T05:42:14;3.37;;;2.37;;
12814;SDS011;6472;52.328;13.070;2022-09-28T05:44:42;6.60;;;3.10;;
12814;SDS011;6472;52.328;13.070;2022-09-28T05:47:11;5.03;;;2.80;;
12814;SDS011;6472;52.328;13.070;2022-09-28T05:49:39;4.27;;;2.73;;
12814;SDS011;6472;52.328;13.070;2022-09-28T05:52:07;4.50;;;2.73;;
12814;SDS011;6472;52.328;13.070;2022-09-28T05:54:35;4.40;;;2.77;;
12814;SDS011;6472;52.328;13.070;2022-09-28T05:57:03;5.20;;;3.30;;
12814;SDS011;6472;52.328;13.070;2022-09-28T05:59:32;2.90;;;2.40;;
12814;SDS011;6472;52.328;13.070;2022-09-28T06:02:01;4.17;;;2.87;;
12814;SDS011;6472;52.328;13.070;2022-09-28T06:04:31;4.13;;;2.27;;
12814;SDS011;6472;52.328;13.070;2022-09-28T06:06:59;3.23;;;2.10;;
12814;SDS011;6472;52.328;13.070;2022-09-28T06:09:27;2.90;;;2.60;;
12814;SDS011;6472;52.328;13.070;2022-09-28T06:11:56;5.03;;;3.17;;
12814;SDS011;6472;52.328;13.070;2022-09-28T06:14:25;4.27;;;2.67;;
12814;SDS011;6472;52.328;13.070;2022-09-28T06:16:52;4.20;;;2.57;;
12814;SDS011;6472;52.328;13.070;2022-09-28T06:19:21;3.33;;;2.37;;
12814;SDS011;6472;52.328;13.070;2022-09-28T06:21:50;4.37;;;2.83;;
12814;SDS011;6472;52.328;13.070;2022-09-28T06:24:18;3.27;;;2.10;;
12814;SDS011;6472;52.328;13.070;2022-09-28T06:26:46;5.03;;;3.43;;
12814;SDS011;6472;52.328;13.070;2022-09-28T06:29:14;3.77;;;2.80;;
12814;SDS011;6472;52.328;13.070;2022-09-28T06:31:45;4.90;;;3.77;;
12814;SDS011;6472;52.328;13.070;2022-09-28T06:34:13;6.43;;;3.03;;
12814;SDS011;6472;52.328;13.070;2022-09-28T06:36:42;6.70;;;3.43;;
12814;SDS011;6472;52.328;13.070;2022-09-28T06:39:11;6.40;;;3.13;;
12814;SDS011;6472;52.328;13.070;2022-09-28T06:41:39;5.53;;;2.67;;
12814;SDS011;6472;52.328;13.070;2022-09-28T06:44:07;4.97;;;3.67;;
12814;SDS011;6472;52.328;13.070;2022-09-28T06:46:35;5.33;;;3.20;;
12814;SDS011;6472;52.328;13.070;2022-09-28T06:49:04;4.07;;;2.73;;
12814;SDS011;6472;52.328;13.070;2022-09-28T06:51:34;7.47;;;3.63;;
12814;SDS011;6472;52.328;13.070;2022-09-28T06:54:02;5.83;;;3.53;;
12814;SDS011;6472;52.328;13.070;2022-09-28T06:56:32;3.83;;;3.20;;
12814;SDS011;6472;52.328;13.070;2022-09-28T06:59:00;3.87;;;2.63;;
12814;SDS011;6472;52.328;13.070;2022-09-28T07:01:28;6.20;;;4.07;;
12814;SDS011;6472;52.328;13.070;2022-09-28T07:03:56;5.30;;;3.30;;
12814;SDS011;6472;52.328;13.070;2022-09-28T07:06:24;5.47;;;3.43;;
12814;SDS011;6472;52.328;13.070;2022-09-28T07:08:52;4.83;;;3.10;;
12814;SDS011;6472;52.328;13.070;2022-09-28T07:11:39;7.53;;;3.67;;
12814;SDS011;6472;52.328;13.070;2022-09-28T07:14:07;3.73;;;2.80;;
12814;SDS011;6472;52.328;13.070;2022-09-28T07:16:47;6.20;;;3.77;;
12814;SDS011;6472;52.328;13.070;2022-09-28T07:19:35;5.50;;;3.63;;
12814;SDS011;6472;52.328;13.070;2022-09-28T07:22:03;5.20;;;3.53;;
12814;SDS011;6472;52.328;13.070;2022-09-28T07:24:31;4.67;;;2.73;;
12814;SDS011;6472;52.328;13.070;2022-09-28T07:27:00;5.07;;;3.27;;
12814;SDS011;6472;52.328;13.070;2022-09-28T07:29:29;5.80;;;3.17;;
12814;SDS011;6472;52.328;13.070;2022-09-28T07:31:57;5.40;;;3.63;;
12814;SDS011;6472;52.328;13.070;2022-09-28T07:34:25;7.00;;;3.90;;
12814;SDS011;6472;52.328;13.070;2022-09-28T07:36:53;9.70;;;3.90;;
12814;SDS011;6472;52.328;13.070;2022-09-28T07:39:25;3.50;;;2.97;;
12814;SDS011;6472;52.328;13.070;2022-09-28T07:41:52;3.30;;;2.87;;
12814;SDS011;6472;52.328;13.070;2022-09-28T07:44:28;5.27;;;3.07;;
12814;SDS011;6472;52.328;13.070;2022-09-28T07:46:57;4.60;;;2.87;;
12814;SDS011;6472;52.328;13.070;2022-09-28T07:49:28;4.87;;;2.67;;
12814;SDS011;6472;52.328;13.070;2022-09-28T07:51:57;3.60;;;2.80;;
12814;SDS011;6472;52.328;13.070;2022-09-28T07:54:25;6.73;;;3.40;;
12814;SDS011;6472;52.328;13.070;2022-09-28T07:56:53;3.63;;;3.03;;
12814;SDS011;6472;52.328;13.070;2022-09-28T07:59:21;3.30;;;2.53;;
12814;SDS011;6472;52.328;13.070;2022-09-28T08:01:51;3.73;;;2.50;;
12814;SDS011;6472;52.328;13.070;2022-09-28T08:04:19;3.67;;;2.47;;
12814;SDS011;6472;52.328;13.070;2022-09-28T08:06:49;4.37;;;3.03;;
12814;SDS011;6472;52.328;13.070;2022-09-28T08:09:17;4.40;;;2.40;;
12814;SDS011;6472;52.328;13.070;2022-09-28T08:11:45;5.67;;;2.37;;
12814;SDS011;6472;52.328;13.070;2022-09-28T08:14:13;4.30;;;2.57;;
12814;SDS011;6472;52.328;13.070;2022-09-28T08:16:41;2.50;;;2.13;;
12814;SDS011;6472;52.328;13.070;2022-09-28T08:19:16;2.43;;;2.00;;
12814;SDS011;6472;52.328;13.070;2022-09-28T08:21:44;2.53;;;1.93;;
12814;SDS011;6472;52.328;13.070;2022-09-28T08:24:11;3.03;;;2.03;;
12814;SDS011;6472;52.328;13.070;2022-09-28T08:26:40;4.67;;;1.83;;
12814;SDS011;6472;52.328;13.070;2022-09-28T08:29:09;2.07;;;1.87;;
12814;SDS011;6472;52.328;13.070;2022-09-28T08:31:37;5.23;;;2.83;;
12814;SDS011;6472;52.328;13.070;2022-09-28T08:34:05;2.10;;;1.73;;
12814;SDS011;6472;52.328;13.070;2022-09-28T08:36:35;2.03;;;1.77;;
12814;SDS011;6472;52.328;13.070;2022-09-28T08:39:04;2.40;;;1.93;;
12814;SDS011;6472;52.328;13.070;2022-09-28T08:41:34;3.33;;;1.90;;
12814;SDS011;6472;52.328;13.070;2022-09-28T08:44:14;2.40;;;2.20;;
12814;SDS011;6472;52.328;13.070;2022-09-28T08:46:50;2.10;;;1.90;;
12814;SDS011;6472;52.328;13.070;2022-09-28T08:49:22;3.87;;;2.07;;
12814;SDS011;6472;52.328;13.070;2022-09-28T08:51:58;1.97;;;1.47;;
12814;SDS011;6472;52.328;13.070;2022-09-28T08:54:32;1.63;;;1.53;;
12814;SDS011;6472;52.328;13.070;2022-09-28T08:57:06;1.60;;;1.10;;
12814;SDS011;6472;52.328;13.070;2022-09-28T08:59:45;1.53;;;1.30;;
12814;SDS011;6472;52.328;13.070;2022-09-28T09:02:18;0.80;;;0.80;;
12814;SDS011;6472;52.328;13.070;2022-09-28T09:04:49;1.67;;;1.20;;
12814;SDS011;6472;52.328;13.070;2022-09-28T09:07:29;1.60;;;1.13;;
12814;SDS011;6472;52.328;13.070;2022-09-28T09:10:23;1.03;;;0.90;;
12814;SDS011;6472;52.328;13.070;2022-09-28T09:13:04;0.90;;;0.90;;
12814;SDS011;6472;52.328;13.070;2022-09-28T09:15:45;5.57;;;1.57;;
12814;SDS011;6472;52.328;13.070;2022-09-28T09:18:23;0.90;;;0.90;;
12814;SDS011;6472;52.328;13.070;2022-09-28T09:21:00;1.53;;;1.17;;
12814;SDS011;6472;52.328;13.070;2022-09-28T09:23:37;1.30;;;1.20;;
12814;SDS011;6472;52.328;13.070;2022-09-28T09:26:15;1.23;;;1.00;;
12814;SDS011;6472;52.328;13.070;2022-09-28T09:31:54;1.10;;;1.10;;
12814;SDS011;6472;52.328;13.070;2022-09-28T09:34:33;1.63;;;1.40;;
12814;SDS011;6472;52.328;13.070;2022-09-28T09:37:17;2.07;;;1.87;;
12814;SDS011;6472;52.328;13.070;2022-09-28T09:39:59;5.73;;;1.90;;
12814;SDS011;6472;52.328;13.070;2022-09-28T09:42:39;3.03;;;1.70;;
12814;SDS011;6472;52.328;13.070;2022-09-28T09:45:27;2.30;;;1.57;;
12814;SDS011;6472;52.328;13.070;2022-09-28T09:48:05;1.43;;;1.33;;
12814;SDS011;6472;52.328;13.070;2022-09-28T09:50:38;1.37;;;1.13;;
12814;SDS011;6472;52.328;13.070;2022-09-28T09:53:13;1.50;;;1.40;;
12814;SDS011;6472;52.328;13.070;2022-09-28T09:55:48;3.57;;;1.07;;
12814;SDS011;6472;52.328;13.070;2022-09-28T09:58:24;1.87;;;1.30;;
12814;SDS011;6472;52.328;13.070;2022-09-28T10:00:57;1.57;;;1.17;;
12814;SDS011;6472;52.328;13.070;2022-09-28T10:03:33;1.63;;;1.10;;
12814;SDS011;6472;52.328;13.070;2022-09-28T10:06:04;2.40;;;1.70;;
12814;SDS011;6472;52.328;13.070;2022-09-28T10:08:36;1.50;;;1.40;;
12814;SDS011;6472;52.328;13.070;2022-09-28T10:11:10;2.83;;;1.87;;
12814;SDS011;6472;52.328;13.070;2022-09-28T10:13:41;1.60;;;1.30;;
12814;SDS011;6472;52.328;13.070;2022-09-28T10:16:09;1.27;;;1.20;;
12814;SDS011;6472;52.328;13.070;2022-09-28T10:18:38;3.17;;;1.27;;
12814;SDS011;6472;52.328;13.070;2022-09-28T10:21:09;1.73;;;1.63;;
12814;SDS011;6472;52.328;13.070;2022-09-28T10:23:39;3.00;;;1.70;;
12814;SDS011;6472;52.328;13.070;2022-09-28T10:26:11;1.30;;;1.20;;
12814;SDS011;6472;52.328;13.070;2022-09-28T10:28:46;1.87;;;1.77;;
12814;SDS011;6472;52.328;13.070;2022-09-28T10:31:37;2.60;;;1.30;;
12814;SDS011;6472;52.328;13.070;2022-09-28T10:34:07;1.73;;;1.63;;
12814;SDS011;6472;52.328;13.070;2022-09-28T10:36:46;1.77;;;1.67;;
12814;SDS011;6472;52.328;13.070;2022-09-28T10:39:25;2.17;;;1.60;;
12814;SDS011;6472;52.328;13.070;2022-09-28T10:41:58;1.60;;;1.50;;
12814;SDS011;6472;52.328;13.070;2022-09-28T10:44:30;1.90;;;1.80;;
12814;SDS011;6472;52.328;13.070;2022-09-28T10:47:01;2.57;;;1.73;;
12814;SDS011;6472;52.328;13.070;2022-09-28T10:49:30;2.30;;;2.03;;
12814;SDS011;6472;52.328;13.070;2022-09-28T10:52:31;2.57;;;2.00;;
12814;SDS011;6472;52.328;13.070;2022-09-28T10:57:55;4.27;;;2.10;;
12814;SDS011;6472;52.328;13.070;2022-09-28T11:00:30;3.30;;;1.73;;
12814;SDS011;6472;52.328;13.070;2022-09-28T11:03:00;2.63;;;1.83;;
12814;SDS011;6472;52.328;13.070;2022-09-28T11:05:29;3.00;;;2.47;;
12814;SDS011;6472;52.328;13.070;2022-09-28T11:07:59;2.00;;;1.80;;
12814;SDS011;6472;52.328;13.070;2022-09-28T11:10:32;2.50;;;2.30;;
12814;SDS011;6472;52.328;13.070;2022-09-28T11:13:02;4.70;;;1.97;;
12814;SDS011;6472;52.328;13.070;2022-09-28T11:15:35;2.00;;;1.77;;
12814;SDS011;6472;52.328;13.070;2022-09-28T11:18:18;2.83;;;2.63;;
12814;SDS011;6472;52.328;13.070;2022-09-28T11:20:51;3.00;;;2.00;;
12814;SDS011;6472;52.328;13.070;2022-09-28T11:23:37;2.87;;;2.67;;
12814;SDS011;6472;52.328;13.070;2022-09-28T11:26:06;3.90;;;2.70;;
12814;SDS011;6472;52.328;13.070;2022-09-28T11:28:45;2.93;;;2.67;;
12814;SDS011;6472;52.328;13.070;2022-09-28T11:31:18;3.27;;;2.70;;
12814;SDS011;6472;52.328;13.070;2022-09-28T11:34:00;2.40;;;1.93;;
12814;SDS011;6472;52.328;13.070;2022-09-28T11:36:37;2.97;;;2.67;;
12814;SDS011;6472;52.328;13.070;2022-09-28T11:39:27;2.43;;;2.20;;
12814;SDS011;6472;52.328;13.070;2022-09-28T11:42:09;3.77;;;3.00;;
12814;SDS011;6472;52.328;13.070;2022-09-28T11:44:51;2.80;;;2.47;;
12814;SDS011;6472;52.328;13.070;2022-09-28T11:47:31;4.77;;;3.13;;
12814;SDS011;6472;52.328;13.070;2022-09-28T11:50:26;5.43;;;2.50;;
12814;SDS011;6472;52.328;13.070;2022-09-28T11:53:00;2.00;;;1.90;;
12814;SDS011;6472;52.328;13.070;2022-09-28T11:55:37;1.93;;;1.83;;
12814;SDS011;6472;52.328;13.070;2022-09-28T11:58:09;3.83;;;2.63;;
12814;SDS011;6472;52.328;13.070;2022-09-28T12:00:43;2.23;;;2.03;;
12814;SDS011;6472;52.328;13.070;2022-09-28T12:03:16;4.50;;;1.53;;
12814;SDS011;6472;52.328;13.070;2022-09-28T12:05:48;2.13;;;1.97;;
12814;SDS011;6472;52.328;13.070;2022-09-28T12:08:19;1.70;;;1.60;;
12814;SDS011;6472;52.328;13.070;2022-09-28T12:10:53;2.57;;;2.07;;
12814;SDS011;6472;52.328;13.070;2022-09-28T12:13:25;1.33;;;1.30;;
12814;SDS011;6472;52.328;13.070;2022-09-28T12:15:58;1.73;;;1.63;;
12814;SDS011;6472;52.328;13.070;2022-09-28T12:18:49;1.67;;;1.57;;
12814;SDS011;6472;52.328;13.070;2022-09-28T12:21:35;3.07;;;1.30;;
12814;SDS011;6472;52.328;13.070;2022-09-28T12:24:10;1.13;;;1.13;;
12814;SDS011;6472;52.328;13.070;2022-09-28T12:26:44;3.13;;;1.60;;
12814;SDS011;6472;52.328;13.070;2022-09-28T12:29:15;2.13;;;1.00;;
12814;SDS011;6472;52.328;13.070;2022-09-28T12:31:57;1.50;;;1.40;;
12814;SDS011;6472;52.328;13.070;2022-09-28T12:34:31;3.97;;;1.63;;
12814;SDS011;6472;52.328;13.070;2022-09-28T12:39:52;2.30;;;1.30;;
12814;SDS011;6472;52.328;13.070;2022-09-28T12:42:43;1.23;;;1.13;;
12814;SDS011;6472;52.328;13.070;2022-09-28T12:45:30;1.10;;;1.07;;
12814;SDS011;6472;52.328;13.070;2022-09-28T12:48:44;2.73;;;1.33;;
12814;SDS011;6472;52.328;13.070;2022-09-28T12:51:46;0.90;;;0.90;;
12814;SDS011;6472;52.328;13.070;2022-09-28T12:54:27;1.43;;;1.33;;
12814;SDS011;6472;52.328;13.070;2022-09-28T12:57:11;1.00;;;1.00;;
12814;SDS011;6472;52.328;13.070;2022-09-28T12:59:56;0.90;;;0.90;;
12814;SDS011;6472;52.328;13.070;2022-09-28T13:02:35;1.63;;;1.20;;
12814;SDS011;6472;52.328;13.070;2022-09-28T13:05:28;1.17;;;1.13;;
12814;SDS011;6472;52.328;13.070;2022-09-28T13:08:12;1.30;;;1.03;;
12814;SDS011;6472;52.328;13.070;2022-09-28T13:10:50;0.80;;;0.80;;
12814;SDS011;6472;52.328;13.070;2022-09-28T13:13:35;1.23;;;1.03;;
12814;SDS011;6472;52.328;13.070;2022-09-28T13:16:11;1.53;;;1.10;;
12814;SDS011;6472;52.328;13.070;2022-09-28T13:18:48;0.90;;;0.90;;
12814;SDS011;6472;52.328;13.070;2022-09-28T13:21:26;1.50;;;1.20;;
12814;SDS011;6472;52.328;13.070;2022-09-28T13:24:00;1.30;;;1.20;;
12814;SDS011;6472;52.328;13.070;2022-09-28T13:26:50;1.60;;;1.10;;
12814;SDS011;6472;52.328;13.070;2022-09-28T13:29:22;1.00;;;1.00;;
12814;SDS011;6472;52.328;13.070;2022-09-28T13:31:52;2.50;;;1.43;;
12814;SDS011;6472;52.328;13.070;2022-09-28T13:34:24;1.37;;;1.30;;
12814;SDS011;6472;52.328;13.070;2022-09-28T13:37:08;1.20;;;1.10;;
12814;SDS011;6472;52.328;13.070;2022-09-28T13:39:47;1.00;;;1.00;;
12814;SDS011;6472;52.328;13.070;2022-09-28T13:42:25;0.80;;;0.80;;
12814;SDS011;6472;52.328;13.070;2022-09-28T13:47:55;1.17;;;0.93;;
12814;SDS011;6472;52.328;13.070;2022-09-28T13:50:33;0.80;;;0.80;;
12814;SDS011;6472;52.328;13.070;2022-09-28T13:53:16;1.97;;;1.33;;
12814;SDS011;6472;52.328;13.070;2022-09-28T13:55:55;1.00;;;1.00;;
12814;SDS011;6472;52.328;13.070;2022-09-28T13:58:29;2.30;;;0.90;;
12814;SDS011;6472;52.328;13.070;2022-09-28T14:01:03;1.90;;;1.17;;
12814;SDS011;6472;52.328;13.070;2022-09-28T14:03:52;0.80;;;0.80;;
12814;SDS011;6472;52.328;13.070;2022-09-28T14:06:23;0.90;;;0.90;;
12814;SDS011;6472;52.328;13.070;2022-09-28T14:09:08;1.00;;;1.00;;
12814;SDS011;6472;52.328;13.070;2022-09-28T14:11:54;2.77;;;1.03;;
12814;SDS011;6472;52.328;13.070;2022-09-28T14:14:30;1.10;;;1.10;;
12814;SDS011;6472;52.328;13.070;2022-09-28T14:20:22;1.20;;;1.20;;
12814;SDS011;6472;52.328;13.070;2022-09-28T14:22:58;2.47;;;1.23;;
12814;SDS011;6472;52.328;13.070;2022-09-28T14:25:59;1.20;;;1.10;;
12814;SDS011;6472;52.328;13.070;2022-09-28T14:28:43;0.90;;;0.90;;
12814;SDS011;6472;52.328;13.070;2022-09-28T14:31:24;1.93;;;1.07;;
12814;SDS011;6472;52.328;13.070;2022-09-28T14:33:54;0.90;;;0.90;;
12814;SDS011;6472;52.328;13.070;2022-09-28T14:36:25;1.10;;;1.10;;
12814;SDS011;6472;52.328;13.070;2022-09-28T14:39:18;1.00;;;1.00;;
12814;SDS011;6472;52.328;13.070;2022-09-28T14:42:13;1.27;;;1.27;;
12814;SDS011;6472;52.328;13.070;2022-09-28T14:48:03;1.27;;;1.13;;
12814;SDS011;6472;52.328;13.070;2022-09-28T14:50:38;1.03;;;1.03;;
12814;SDS011;6472;52.328;13.070;2022-09-28T14:53:08;1.00;;;1.00;;
12814;SDS011;6472;52.328;13.070;2022-09-28T14:55:41;1.00;;;1.00;;
12814;SDS011;6472;52.328;13.070;2022-09-28T14:58:21;2.73;;;1.20;;
12814;SDS011;6472;52.328;13.070;2022-09-28T15:01:00;1.30;;;1.20;;
12814;SDS011;6472;52.328;13.070;2022-09-28T15:03:32;1.33;;;1.33;;
12814;SDS011;6472;52.328;13.070;2022-09-28T15:06:01;0.80;;;0.80;;
12814;SDS011;6472;52.328;13.070;2022-09-28T15:08:36;0.90;;;0.90;;
12814;SDS011;6472;52.328;13.070;2022-09-28T15:11:05;0.80;;;0.80;;
12814;SDS011;6472;52.328;13.070;2022-09-28T15:13:39;0.70;;;0.70;;
12814;SDS011;6472;52.328;13.070;2022-09-28T15:16:09;0.70;;;0.70;;
12814;SDS011;6472;52.328;13.070;2022-09-28T15:19:00;2.80;;;1.00;;
12814;SDS011;6472;52.328;13.070;2022-09-28T15:21:43;1.30;;;1.03;;
12814;SDS011;6472;52.328;13.070;2022-09-28T15:24:24;0.80;;;0.80;;
12814;SDS011;6472;52.328;13.070;2022-09-28T15:27:00;0.93;;;0.93;;
12814;SDS011;6472;52.328;13.070;2022-09-28T15:29:31;0.70;;;0.70;;
12814;SDS011;6472;52.328;13.070;2022-09-28T15:31:59;1.07;;;1.03;;
12814;SDS011;6472;52.328;13.070;2022-09-28T15:34:28;1.13;;;1.03;;
12814;SDS011;6472;52.328;13.070;2022-09-28T15:37:14;1.30;;;1.20;;
12814;SDS011;6472;52.328;13.070;2022-09-28T15:39:45;1.10;;;1.03;;
12814;SDS011;6472;52.328;13.070;2022-09-28T15:42:14;1.33;;;1.23;;
12814;SDS011;6472;52.328;13.070;2022-09-28T15:47:52;1.27;;;1.03;;
12814;SDS011;6472;52.328;13.070;2022-09-28T15:50:24;1.20;;;1.10;;
12814;SDS011;6472;52.328;13.070;2022-09-28T15:52:55;1.33;;;1.23;;